sensor_id;sensor_type;location;lat;lon;timestamp;P1;durP1;ratioP1;P2;durP2;ratioP2
7883;SDS011;3987;51.458;7.238;2023-08-07T00:03:49;5.27;;;5.10;;
7883;SDS011;3987;51.458;7.238;2023-08-07T00:18:49;5.83;;;5.70;;
7883;SDS011;3987;51.458;7.238;2023-08-07T00:33:50;7.53;;;6.87;;
7883;SDS011;3987;51.458;7.238;2023-08-07T00:48:54;8.17;;;7.37;;
7883;SDS011;3987;51.458;7.238;2023-08-07T01:03:54;9.03;;;8.13;;
7883;SDS011;3987;51.458;7.238;2023-08-07T01:18:55;11.43;;;10.33;;
7883;SDS011;3987;51.458;7.238;2023-08-07T01:33:57;11.77;;;10.53;;
7883;SDS011;3987;51.458;7.238;2023-08-07T01:49:00;17.10;;;11.53;;
7883;SDS011;3987;51.458;7.238;2023-08-07T02:04:00;15.83;;;13.13;;
7883;SDS011;3987;51.458;7.238;2023-08-07T02:19:01;10.13;;;9.00;;
7883;SDS011;3987;51.458;7.238;2023-08-07T02:34:01;8.03;;;7.63;;
7883;SDS011;3987;51.458;7.238;2023-08-07T02:49:01;6.50;;;6.10;;
7883;SDS011;3987;51.458;7.238;2023-08-07T03:04:02;5.37;;;4.87;;
7883;SDS011;3987;51.458;7.238;2023-08-07T03:19:02;4.43;;;3.50;;
7883;SDS011;3987;51.458;7.238;2023-08-07T03:34:03;4.17;;;2.93;;
7883;SDS011;3987;51.458;7.238;2023-08-07T03:49:04;6.93;;;6.50;;
7883;SDS011;3987;51.458;7.238;2023-08-07T04:04:04;22.63;;;11.03;;
7883;SDS011;3987;51.458;7.238;2023-08-07T04:19:05;26.17;;;14.83;;
7883;SDS011;3987;51.458;7.238;2023-08-07T04:34:07;30.17;;;15.57;;
7883;SDS011;3987;51.458;7.238;2023-08-07T04:49:08;24.37;;;14.60;;
7883;SDS011;3987;51.458;7.238;2023-08-07T05:04:09;30.50;;;15.90;;
7883;SDS011;3987;51.458;7.238;2023-08-07T05:19:09;20.07;;;13.53;;
7883;SDS011;3987;51.458;7.238;2023-08-07T05:34:10;17.80;;;8.40;;
7883;SDS011;3987;51.458;7.238;2023-08-07T05:49:10;9.00;;;6.60;;
7883;SDS011;3987;51.458;7.238;2023-08-07T06:04:10;10.63;;;5.70;;
7883;SDS011;3987;51.458;7.238;2023-08-07T06:19:11;14.43;;;10.57;;
7883;SDS011;3987;51.458;7.238;2023-08-07T06:34:11;18.07;;;15.37;;
7883;SDS011;3987;51.458;7.238;2023-08-07T06:49:12;18.13;;;15.40;;
7883;SDS011;3987;51.458;7.238;2023-08-07T07:04:13;14.60;;;13.17;;
7883;SDS011;3987;51.458;7.238;2023-08-07T07:19:13;17.57;;;14.80;;
7883;SDS011;3987;51.458;7.238;2023-08-07T07:34:14;19.03;;;13.27;;
7883;SDS011;3987;51.458;7.238;2023-08-07T07:49:14;16.60;;;12.17;;
7883;SDS011;3987;51.458;7.238;2023-08-07T08:04:15;15.47;;;12.07;;
7883;SDS011;3987;51.458;7.238;2023-08-07T08:19:16;6.97;;;6.43;;
7883;SDS011;3987;51.458;7.238;2023-08-07T08:34:17;6.20;;;5.10;;
7883;SDS011;3987;51.458;7.238;2023-08-07T08:49:18;3.87;;;3.67;;
7883;SDS011;3987;51.458;7.238;2023-08-07T09:04:23;16.73;;;7.20;;
7883;SDS011;3987;51.458;7.238;2023-08-07T09:19:24;8.53;;;7.10;;
7883;SDS011;3987;51.458;7.238;2023-08-07T09:34:24;9.17;;;8.23;;
7883;SDS011;3987;51.458;7.238;2023-08-07T09:49:27;8.63;;;6.73;;
7883;SDS011;3987;51.458;7.238;2023-08-07T10:04:32;12.60;;;5.63;;
7883;SDS011;3987;51.458;7.238;2023-08-07T10:19:33;4.70;;;4.03;;
7883;SDS011;3987;51.458;7.238;2023-08-07T10:34:33;11.27;;;5.77;;
7883;SDS011;3987;51.458;7.238;2023-08-07T10:49:38;8.47;;;4.70;;
7883;SDS011;3987;51.458;7.238;2023-08-07T11:04:40;5.97;;;4.00;;
7883;SDS011;3987;51.458;7.238;2023-08-07T11:19:40;7.43;;;3.53;;
7883;SDS011;3987;51.458;7.238;2023-08-07T11:34:46;6.03;;;3.00;;
7883;SDS011;3987;51.458;7.238;2023-08-07T11:49:48;10.07;;;3.50;;
7883;SDS011;3987;51.458;7.238;2023-08-07T12:04:48;4.60;;;2.57;;
7883;SDS011;3987;51.458;7.238;2023-08-07T12:19:49;2.67;;;2.20;;
7883;SDS011;3987;51.458;7.238;2023-08-07T12:34:50;1.87;;;1.60;;
7883;SDS011;3987;51.458;7.238;2023-08-07T12:49:50;2.07;;;1.70;;
7883;SDS011;3987;51.458;7.238;2023-08-07T13:04:51;11.50;;;2.33;;
7883;SDS011;3987;51.458;7.238;2023-08-07T13:19:52;3.87;;;2.17;;
7883;SDS011;3987;51.458;7.238;2023-08-07T13:34:52;3.23;;;1.50;;
7883;SDS011;3987;51.458;7.238;2023-08-07T13:49:53;3.97;;;2.17;;
7883;SDS011;3987;51.458;7.238;2023-08-07T14:04:54;2.97;;;2.00;;
7883;SDS011;3987;51.458;7.238;2023-08-07T14:19:57;2.97;;;1.40;;
7883;SDS011;3987;51.458;7.238;2023-08-07T14:34:57;6.47;;;1.60;;
7883;SDS011;3987;51.458;7.238;2023-08-07T14:49:58;1.53;;;1.53;;
7883;SDS011;3987;51.458;7.238;2023-08-07T15:04:58;1.60;;;1.43;;
7883;SDS011;3987;51.458;7.238;2023-08-07T15:19:58;1.43;;;1.30;;
7883;SDS011;3987;51.458;7.238;2023-08-07T15:34:59;1.10;;;1.07;;
7883;SDS011;3987;51.458;7.238;2023-08-07T15:49:59;1.37;;;0.97;;
7883;SDS011;3987;51.458;7.238;2023-08-07T16:05:00;1.37;;;1.30;;
7883;SDS011;3987;51.458;7.238;2023-08-07T16:20:00;1.27;;;1.17;;
7883;SDS011;3987;51.458;7.238;2023-08-07T16:35:01;2.50;;;0.97;;
7883;SDS011;3987;51.458;7.238;2023-08-07T16:50:02;1.40;;;1.30;;
7883;SDS011;3987;51.458;7.238;2023-08-07T17:05:02;2.20;;;1.63;;
7883;SDS011;3987;51.458;7.238;2023-08-07T17:20:03;1.80;;;1.60;;
7883;SDS011;3987;51.458;7.238;2023-08-07T17:35:04;2.92;;;1.98;;
7883;SDS011;3987;51.458;7.238;2023-08-07T17:50:05;3.40;;;1.77;;
7883;SDS011;3987;51.458;7.238;2023-08-07T18:05:09;1.27;;;1.20;;
7883;SDS011;3987;51.458;7.238;2023-08-07T18:20:09;1.73;;;1.67;;
7883;SDS011;3987;51.458;7.238;2023-08-07T18:35:11;2.00;;;1.40;;
7883;SDS011;3987;51.458;7.238;2023-08-07T18:50:12;1.63;;;1.57;;
7883;SDS011;3987;51.458;7.238;2023-08-07T19:05:12;1.80;;;1.70;;
7883;SDS011;3987;51.458;7.238;2023-08-07T19:20:13;1.70;;;1.70;;
7883;SDS011;3987;51.458;7.238;2023-08-07T19:35:13;3.40;;;2.30;;
7883;SDS011;3987;51.458;7.238;2023-08-07T19:50:14;2.40;;;2.30;;
7883;SDS011;3987;51.458;7.238;2023-08-07T20:05:15;2.90;;;2.70;;
7883;SDS011;3987;51.458;7.238;2023-08-07T20:20:16;4.67;;;3.23;;
7883;SDS011;3987;51.458;7.238;2023-08-07T20:35:19;4.33;;;2.80;;
7883;SDS011;3987;51.458;7.238;2023-08-07T20:50:20;2.93;;;2.80;;
7883;SDS011;3987;51.458;7.238;2023-08-07T21:05:21;2.80;;;2.70;;
7883;SDS011;3987;51.458;7.238;2023-08-07T21:20:21;3.03;;;2.87;;
7883;SDS011;3987;51.458;7.238;2023-08-07T21:35:21;2.63;;;2.53;;
7883;SDS011;3987;51.458;7.238;2023-08-07T21:50:22;2.50;;;2.43;;
7883;SDS011;3987;51.458;7.238;2023-08-07T22:05:22;3.23;;;3.03;;
7883;SDS011;3987;51.458;7.238;2023-08-07T22:20:23;2.87;;;2.77;;
7883;SDS011;3987;51.458;7.238;2023-08-07T22:35:24;2.83;;;2.77;;
7883;SDS011;3987;51.458;7.238;2023-08-07T22:50:24;3.33;;;3.03;;
7883;SDS011;3987;51.458;7.238;2023-08-07T23:05:25;2.10;;;2.10;;
7883;SDS011;3987;51.458;7.238;2023-08-07T23:20:25;2.33;;;2.23;;
7883;SDS011;3987;51.458;7.238;2023-08-07T23:35:26;2.00;;;1.73;;
7883;SDS011;3987;51.458;7.238;2023-08-07T23:50:26;1.90;;;1.80;;
